Time;durP1;ratioP1;P1;durP2;ratioP2;P2;SDS_P1;SDS_P2;PMS_P1;PMS_P2;Temp;Humidity;BMP_temperature;BMP_pressure;BME280_temperature;BME280_humidity;BME280_pressure;Samples;Min_cycle;Max_cycle;Signal;HPM_P1;HPM_P2
2022/05/13 00:03:21;;;;;;;2.67;1.40;;;;;;;19.80;42.54;100354.34;10372491;28;20156;-64
2022/05/13 00:08:22;;;;;;;6.13;2.30;;;;;;;19.65;43.19;100338.94;10384821;28;20049;-66
2022/05/13 00:13:23;;;;;;;3.70;2.28;;;;;;;19.30;43.94;100314.19;10373024;28;20049;-63
2022/05/13 00:18:25;;;;;;;3.55;2.00;;;;;;;19.22;44.37;100346.66;10373906;28;20048;-62
2022/05/13 00:23:27;;;;;;;2.50;1.73;;;;;;;19.18;44.67;100338.03;10370366;28;20770;-63
2022/05/13 00:28:29;;;;;;;4.90;1.95;;;;;;;19.22;43.27;100325.88;10370731;28;20045;-63
2022/05/13 00:33:32;;;;;;;2.63;1.77;;;;;;;19.32;43.26;100339.16;10371204;28;20045;-63
2022/05/13 00:38:33;;;;;;;1.73;1.57;;;;;;;19.33;43.19;100330.03;10373852;28;20060;-64
2022/05/13 00:43:53;;;;;;;4.18;1.88;;;;;;;19.15;43.69;100335.69;10378816;28;20124;-62
2022/05/13 00:48:58;;;;;;;2.35;1.75;;;;;;;19.20;45.36;100345.97;10374207;28;20072;-61
2022/05/13 00:54:00;;;;;;;3.83;2.10;;;;;;;19.23;44.59;100337.50;10367981;28;20049;-62
2022/05/13 00:59:04;;;;;;;4.43;2.05;;;;;;;19.14;43.96;100317.00;10372684;28;20056;-61
2022/05/13 01:04:11;;;;;;;3.70;2.13;;;;;;;19.20;45.48;100316.28;10370959;28;20679;-64
2022/05/13 01:09:12;;;;;;;2.92;1.90;;;;;;;19.18;45.67;100331.81;10361738;28;20049;-63
2022/05/13 01:14:20;;;;;;;4.65;2.10;;;;;;;19.10;44.62;100337.28;10370084;28;20771;-63
2022/05/13 01:19:21;;;;;;;4.65;2.22;;;;;;;18.93;44.91;100331.97;10369214;28;20052;-63
2022/05/13 01:24:23;;;;;;;2.88;2.10;;;;;;;18.85;46.44;100343.59;10369265;28;20101;-63
2022/05/13 01:29:24;;;;;;;5.40;2.40;;;;;;;18.94;46.40;100338.19;10370563;28;21620;-63
2022/05/13 01:34:25;;;;;;;3.53;1.98;;;;;;;18.96;46.24;100334.31;10369312;28;20041;-63
2022/05/13 01:39:27;;;;;;;4.25;1.88;;;;;;;18.96;46.43;100342.41;10368499;28;20133;-62
2022/05/13 01:44:28;;;;;;;2.22;2.00;;;;;;;18.73;46.59;100326.97;10369131;28;20543;-62
2022/05/13 01:49:29;;;;;;;3.95;2.10;;;;;;;18.63;46.87;100320.09;10370857;28;20140;-62
2022/05/13 01:54:31;;;;;;;2.83;2.03;;;;;;;18.76;47.22;100341.09;10377029;28;20053;-62
2022/05/13 01:59:32;;;;;;;3.35;1.95;;;;;;;18.69;47.04;100341.81;10377723;28;20120;-64
2022/05/13 02:04:34;;;;;;;4.55;1.95;;;;;;;18.60;47.29;100344.69;10374575;28;20058;-63
2022/05/13 02:09:35;;;;;;;3.75;2.33;;;;;;;18.52;48.00;100342.88;10374014;28;20072;-62
2022/05/13 02:14:36;;;;;;;4.15;2.10;;;;;;;18.54;48.95;100349.78;10373684;28;20132;-64
2022/05/13 02:19:38;;;;;;;3.15;2.10;;;;;;;18.49;49.18;100349.44;10374923;28;20045;-63
2022/05/13 02:24:39;;;;;;;5.38;2.28;;;;;;;18.42;49.55;100347.63;10374345;28;20049;-63
2022/05/13 02:29:40;;;;;;;5.45;2.67;;;;;;;18.29;49.49;100340.09;10375529;28;20051;-62
2022/05/13 02:34:43;;;;;;;2.88;2.05;;;;;;;18.30;50.26;100361.47;10386467;28;20054;-63
2022/05/13 02:39:44;;;;;;;5.18;2.58;;;;;;;18.32;50.02;100340.56;10374522;28;20053;-63
2022/05/13 02:44:46;;;;;;;3.13;2.30;;;;;;;18.28;50.15;100358.06;10373928;28;20053;-63
2022/05/13 02:49:47;;;;;;;4.32;2.22;;;;;;;18.20;49.85;100360.81;10373368;28;20050;-63
2022/05/13 02:54:48;;;;;;;4.30;2.15;;;;;;;18.16;49.37;100351.38;10374238;28;20057;-63
2022/05/13 02:59:50;;;;;;;5.38;2.45;;;;;;;18.01;49.64;100354.78;10373624;28;20844;-63
2022/05/13 03:04:51;;;;;;;4.65;2.47;;;;;;;18.06;48.89;100356.09;10374125;28;20245;-64
2022/05/13 03:09:53;;;;;;;6.10;2.25;;;;;;;17.90;49.26;100363.19;10372456;28;20549;-62
2022/05/13 03:14:54;;;;;;;4.88;2.13;;;;;;;17.82;49.49;100365.84;10371921;28;20153;-64
2022/05/13 03:19:56;;;;;;;3.03;2.17;;;;;;;17.70;49.73;100357.28;10371697;28;20720;-63
2022/05/13 03:24:58;;;;;;;5.00;2.63;;;;;;;17.76;49.79;100371.88;10372668;28;20136;-63
2022/05/13 03:29:59;;;;;;;5.65;2.45;;;;;;;17.65;49.70;100365.00;10374044;28;20049;-62
2022/05/13 03:35:04;;;;;;;8.05;2.53;;;;;;;17.72;50.09;100371.38;10374464;28;20057;-63
2022/05/13 03:40:06;;;;;;;2.20;1.77;;;;;;;17.70;50.88;100375.25;10371784;28;20053;-63
2022/05/13 03:45:10;;;;;;;4.82;2.30;;;;;;;17.72;50.55;100371.38;10372726;28;20133;-63
2022/05/13 03:50:12;;;;;;;3.88;2.20;;;;;;;17.58;49.81;100353.19;10373710;28;20060;-62
2022/05/13 03:55:15;;;;;;;5.47;2.40;;;;;;;17.69;50.58;100369.03;10370871;28;20107;-62
2022/05/13 04:00:17;;;;;;;4.05;2.22;;;;;;;17.66;50.82;100375.59;10374582;28;20169;-63
2022/05/13 04:10:39;;;;;;;4.22;2.25;;;;;;;17.59;51.54;100385.31;10372755;28;20069;-65
2022/05/13 04:21:01;;;;;;;5.55;2.65;;;;;;;17.78;50.43;100375.28;10371369;28;23022;-64
2022/05/13 04:26:02;;;;;;;4.07;1.90;;;;;;;17.73;50.85;100367.69;10372809;28;20054;-64
2022/05/13 04:31:04;;;;;;;5.03;2.70;;;;;;;17.77;49.97;100378.97;10379791;28;20053;-63
2022/05/13 04:36:10;;;;;;;3.97;2.13;;;;;;;17.70;50.72;100370.72;10384319;28;20073;-63
2022/05/13 04:46:33;;;;;;;4.63;1.70;;;;;;;17.73;49.21;100394.63;10368733;28;20045;-62
2022/05/13 04:51:36;;;;;;;4.13;2.20;;;;;;;17.76;48.44;100388.03;10370506;28;20397;-64
2022/05/13 04:56:39;;;;;;;3.83;2.00;;;;;;;17.66;50.07;100397.13;10375079;28;20056;-64
2022/05/13 05:01:41;;;;;;;5.97;1.55;;;;;;;17.66;49.60;100389.03;10378691;28;21549;-65
2022/05/13 05:06:42;;;;;;;4.90;1.90;;;;;;;17.85;49.87;100408.59;10370541;28;20049;-65
2022/05/13 05:11:44;;;;;;;2.92;1.73;;;;;;;17.94;49.69;100414.84;10370008;28;20065;-64
2022/05/13 05:16:45;;;;;;;3.53;1.67;;;;;;;17.82;48.73;100408.94;10367854;28;20054;-62
2022/05/13 05:21:47;;;;;;;4.57;2.30;;;;;;;17.89;49.50;100436.88;10370975;28;20567;-63
2022/05/13 05:26:48;;;;;;;4.50;1.77;;;;;;;17.99;49.41;100448.34;10377861;28;20053;-63
2022/05/13 05:31:49;;;;;;;2.38;1.45;;;;;;;18.03;48.70;100446.19;10379039;28;20046;-64
2022/05/13 05:36:51;;;;;;;8.18;1.52;;;;;;;17.93;47.16;100440.94;10377290;28;20079;-64
2022/05/13 05:41:52;;;;;;;4.53;1.90;;;;;;;17.74;47.61;100433.13;10380220;28;20154;-63
2022/05/13 05:46:54;;;;;;;4.00;1.90;;;;;;;17.39;48.90;100446.69;10377178;28;20060;-63
2022/05/13 05:51:56;;;;;;;4.10;1.73;;;;;;;17.66;48.71;100448.25;10378906;28;20144;-62
2022/05/13 05:57:15;;;;;;;5.82;1.60;;;;;;;17.84;47.66;100464.28;10377039;28;20045;-63
2022/05/13 06:02:17;;;;;;;5.57;1.83;;;;;;;17.89;48.64;100458.44;10376838;28;20045;-63
2022/05/13 06:07:19;;;;;;;4.63;1.58;;;;;;;18.01;48.98;100484.06;10377387;28;20087;-63
2022/05/13 06:12:23;;;;;;;8.90;2.00;;;;;;;18.06;46.75;100477.28;10379271;28;20042;-63
2022/05/13 06:17:25;;;;;;;4.85;1.35;;;;;;;18.27;46.59;100496.53;10376115;28;20064;-63
2022/05/13 06:22:26;;;;;;;5.40;1.15;;;;;;;18.41;45.72;100505.78;10391064;28;20698;-63
2022/05/13 06:27:27;;;;;;;4.57;1.27;;;;;;;18.02;45.47;100496.50;10379045;28;20052;-64
2022/05/13 06:32:29;;;;;;;4.40;1.40;;;;;;;17.94;43.08;100490.25;10375474;28;20142;-63
2022/05/13 06:37:30;;;;;;;3.50;0.60;;;;;;;18.11;42.91;100515.38;10372135;28;20108;-63
2022/05/13 06:42:32;;;;;;;3.78;0.80;;;;;;;18.13;42.60;100518.72;10375014;28;20156;-63
2022/05/13 06:47:33;;;;;;;2.67;1.05;;;;;;;18.04;44.07;100515.19;10371417;28;20048;-64
2022/05/13 06:52:35;;;;;;;5.38;1.25;;;;;;;17.62;43.25;100526.81;10375904;28;20068;-63
2022/05/13 06:57:42;;;;;;;5.38;2.08;;;;;;;17.69;43.85;100535.09;10373582;28;20579;-62
2022/05/13 07:02:43;;;;;;;4.57;2.22;;;;;;;18.07;44.17;100512.16;10375101;28;20570;-63
2022/05/13 07:07:45;;;;;;;5.18;1.20;;;;;;;17.93;44.46;100515.50;10374903;28;20780;-63
2022/05/13 07:12:46;;;;;;;3.33;0.75;;;;;;;18.25;44.53;100509.31;10374381;28;20099;-63
2022/05/13 07:17:48;;;;;;;2.47;0.80;;;;;;;18.53;42.83;100500.91;10374476;28;20053;-63
2022/05/13 07:22:49;;;;;;;4.55;1.00;;;;;;;18.61;42.38;100505.44;10376128;28;20041;-63
2022/05/13 07:27:50;;;;;;;3.55;1.15;;;;;;;18.62;42.57;100486.41;10378250;28;20055;-63
2022/05/13 07:32:52;;;;;;;8.07;1.38;;;;;;;18.66;42.82;100509.31;10374099;28;20722;-64
2022/05/13 07:37:54;;;;;;;4.70;0.73;;;;;;;19.01;42.54;100506.41;10374241;28;20140;-63
2022/05/13 07:42:55;;;;;;;8.25;1.48;;;;;;;19.06;41.21;100525.63;10375308;28;20049;-63
2022/05/13 07:47:57;;;;;;;6.25;1.00;;;;;;;19.14;41.57;100517.50;10373513;28;20049;-63
2022/05/13 07:52:59;;;;;;;5.68;1.40;;;;;;;19.21;40.84;100513.06;10373449;28;20045;-64
2022/05/13 07:58:00;;;;;;;6.28;0.88;;;;;;;19.17;40.49;100521.69;10373946;28;20136;-64
2022/05/13 08:03:09;;;;;;;7.80;1.23;;;;;;;19.30;40.27;100516.59;10375415;28;20050;-64
2022/05/13 08:08:14;;;;;;;3.22;0.60;;;;;;;19.10;40.27;100520.72;10374755;28;20045;-64
2022/05/13 08:13:16;;;;;;;6.70;0.80;;;;;;;19.23;40.25;100521.00;10377338;28;20059;-64
2022/05/13 08:18:20;;;;;;;4.72;1.35;;;;;;;19.56;39.94;100519.03;10383257;28;20144;-64
2022/05/13 08:23:22;;;;;;;3.15;1.15;;;;;;;19.34;39.61;100511.72;10377114;28;20049;-64
2022/05/13 08:28:24;;;;;;;3.25;0.68;;;;;;;19.70;38.77;100528.25;10374640;28;20079;-64
2022/05/13 08:33:26;;;;;;;4.75;1.02;;;;;;;19.63;38.76;100521.03;10389696;28;20057;-64
2022/05/13 08:38:30;;;;;;;3.10;0.88;;;;;;;19.88;35.19;100529.88;10374558;28;20458;-63
2022/05/13 08:43:35;;;;;;;4.90;0.60;;;;;;;19.67;34.42;100535.88;10373930;28;20054;-64
2022/05/13 08:48:57;;;;;;;2.05;0.50;;;;;;;19.72;34.84;100541.56;10371068;28;20132;-64
2022/05/13 08:54:17;;;;;;;3.70;0.32;;;;;;;19.89;33.40;100553.16;10370039;28;20055;-63
2022/05/13 08:59:23;;;;;;;2.13;0.80;;;;;;;19.52;32.65;100549.25;10370874;28;20073;-63
2022/05/13 09:04:47;;;;;;;3.65;0.63;;;;;;;19.78;33.60;100557.94;10371648;28;20049;-64
2022/05/13 09:09:52;;;;;;;3.22;0.82;;;;;;;20.12;33.41;100567.53;10372513;28;20492;-63
2022/05/13 09:15:08;;;;;;;3.47;0.60;;;;;;;20.52;33.13;100572.00;10371462;28;20049;-64
2022/05/13 09:20:12;;;;;;;3.90;1.30;;;;;;;20.48;32.45;100572.38;10373120;28;20041;-64
2022/05/13 09:25:43;;;;;;;5.80;0.52;;;;;;;20.59;33.28;100575.66;10371412;28;20057;-63
2022/05/13 09:30:55;;;;;;;2.67;0.60;;;;;;;21.01;32.86;100583.25;10372560;28;20057;-62
2022/05/13 09:36:00;;;;;;;4.30;1.00;;;;;;;21.25;33.08;100580.50;10373449;28;20049;-63
2022/05/13 09:41:35;;;;;;;1.70;0.60;;;;;;;22.17;31.12;100558.38;10371820;28;20064;-66
2022/05/13 09:46:42;;;;;;;3.95;0.80;;;;;;;21.97;31.24;100568.13;10374667;28;20046;-64
2022/05/13 09:51:59;;;;;;;1.42;0.70;;;;;;;21.94;31.96;100560.38;10381943;28;20076;-62
2022/05/13 09:57:06;;;;;;;4.47;1.02;;;;;;;21.84;31.80;100557.97;10369390;28;20558;-63
2022/05/13 10:02:24;;;;;;;4.05;0.80;;;;;;;22.46;31.31;100559.31;10370240;28;20132;-64
2022/05/13 10:07:26;;;;;;;5.97;1.10;;;;;;;23.03;30.75;100538.47;10372270;28;20558;-63
2022/05/13 10:18:24;;;;;;;3.72;1.00;;;;;;;23.32;30.74;100549.31;10378485;28;20071;-63
2022/05/13 10:23:54;;;;;;;2.45;0.77;;;;;;;23.23;30.74;100556.78;10378808;28;20053;-63
2022/05/13 10:29:04;;;;;;;4.40;1.13;;;;;;;24.28;29.24;100549.28;10377341;28;20357;-63
2022/05/13 10:34:14;;;;;;;2.45;0.70;;;;;;;23.23;30.12;100549.47;10376228;28;20049;-64
2022/05/13 10:39:22;;;;;;;3.90;0.85;;;;;;;24.18;29.62;100548.84;10377075;28;20049;-64
2022/05/13 10:44:46;;;;;;;3.47;1.23;;;;;;;24.20;28.86;100551.34;10376388;28;20049;-63
2022/05/13 10:49:48;;;;;;;3.90;1.20;;;;;;;24.20;29.51;100560.38;10392003;28;20105;-65
2022/05/13 10:55:15;;;;;;;4.75;0.90;;;;;;;24.28;29.28;100557.44;10376072;28;20247;-63
2022/05/13 11:00:29;;;;;;;3.10;1.27;;;;;;;24.56;28.68;100547.41;10346440;28;20049;-63
2022/05/13 11:05:46;;;;;;;3.33;0.98;;;;;;;24.40;28.09;100537.78;10380190;28;20059;-62
2022/05/13 11:11:30;;;;;;;3.47;0.65;;;;;;;23.93;29.07;100530.38;10387320;28;20069;-63
2022/05/13 11:16:47;;;;;;;2.72;0.93;;;;;;;23.80;29.17;100552.06;10382277;28;20056;-63
2022/05/13 11:22:02;;;;;;;4.18;1.10;;;;;;;24.11;28.95;100534.38;10400118;28;20080;-62
2022/05/13 11:27:25;;;;;;;2.50;0.50;;;;;;;23.57;29.97;100536.91;10376615;28;20049;-64
2022/05/13 11:32:31;;;;;;;2.90;0.80;;;;;;;24.72;28.86;100527.97;10375829;28;20069;-63
2022/05/13 11:37:39;;;;;;;3.40;0.60;;;;;;;25.01;28.43;100536.72;10375386;28;20107;-63
2022/05/13 11:43:21;;;;;;;4.13;0.98;;;;;;;24.25;29.08;100527.94;10375220;28;20048;-62
2022/05/13 11:48:27;;;;;;;3.92;1.00;;;;;;;25.27;28.71;100529.59;10374695;28;20547;-63
2022/05/13 11:53:41;;;;;;;2.00;1.02;;;;;;;25.35;28.01;100527.47;10391143;28;20056;-63
2022/05/13 11:58:52;;;;;;;5.15;1.10;;;;;;;25.44;27.48;100530.78;10378508;28;20045;-64
2022/05/13 12:04:12;;;;;;;1.55;0.52;;;;;;;25.64;27.28;100530.72;10381107;28;20057;-63
2022/05/13 12:09:14;;;;;;;2.70;0.63;;;;;;;25.26;27.53;100526.00;10378583;28;20508;-63
2022/05/13 12:14:43;;;;;;;3.45;1.30;;;;;;;25.64;27.50;100508.94;10379423;28;20049;-63
2022/05/13 12:19:54;;;;;;;4.50;1.13;;;;;;;25.59;27.22;100514.19;10374598;28;20514;-63
2022/05/13 12:25:03;;;;;;;2.85;0.82;;;;;;;25.48;27.87;100514.88;10372523;28;20050;-64
2022/05/13 12:30:10;;;;;;;4.45;0.70;;;;;;;25.35;27.68;100516.56;10377520;28;20172;-63
2022/05/13 12:41:09;;;;;;;2.83;0.60;;;;;;;25.28;28.37;100515.75;10372824;28;20060;-63
2022/05/13 12:46:16;;;;;;;3.78;0.90;;;;;;;25.17;27.26;100513.66;10371041;28;20060;-63
2022/05/13 12:51:19;;;;;;;2.38;0.65;;;;;;;25.32;28.45;100511.56;10371363;28;20055;-63
2022/05/13 12:56:34;;;;;;;4.20;0.60;;;;;;;25.08;27.91;100498.63;10370869;28;20368;-62
2022/05/13 13:01:40;;;;;;;4.00;0.57;;;;;;;25.63;27.56;100490.91;10373243;28;20052;-64
2022/05/13 13:06:45;;;;;;;3.05;0.50;;;;;;;25.28;27.81;100466.72;10371920;28;20064;-65
2022/05/13 13:11:51;;;;;;;3.65;0.60;;;;;;;25.20;27.63;100510.53;10371622;28;20563;-62
2022/05/13 13:17:36;;;;;;;4.18;0.98;;;;;;;24.84;28.05;100484.63;10372212;28;20520;-63
2022/05/13 13:22:41;;;;;;;1.67;0.32;;;;;;;24.96;27.96;100485.63;10361215;28;20077;-64
2022/05/13 13:27:43;;;;;;;2.15;0.30;;;;;;;24.92;27.82;100489.00;10370125;28;20072;-64
2022/05/13 13:32:49;;;;;;;2.70;1.02;;;;;;;24.88;27.62;100478.53;10369893;28;20156;-65
2022/05/13 13:37:51;;;;;;;1.52;0.60;;;;;;;24.77;27.75;100478.34;10370303;28;20064;-63
2022/05/13 13:42:52;;;;;;;2.05;0.60;;;;;;;24.07;28.38;100481.47;10371088;28;20057;-64
2022/05/13 13:47:57;;;;;;;3.63;0.88;;;;;;;24.54;27.85;100468.72;10378776;28;20050;-63
2022/05/13 13:52:59;;;;;;;1.83;0.45;;;;;;;24.66;27.71;100480.66;10379499;28;20065;-63
2022/05/13 13:58:08;;;;;;;1.65;0.50;;;;;;;24.86;28.22;100477.06;10382037;28;20049;-64
2022/05/13 14:03:30;;;;;;;4.20;0.80;;;;;;;24.92;28.14;100475.38;10382016;28;20164;-63
2022/05/13 14:08:37;;;;;;;2.45;0.75;;;;;;;24.65;28.10;100472.72;10377358;28;20136;-63
2022/05/13 14:13:45;;;;;;;2.92;0.70;;;;;;;24.35;28.87;100482.13;10378662;28;20106;-65
2022/05/13 14:18:49;;;;;;;2.10;0.50;;;;;;;24.70;28.38;100476.47;10379601;28;20489;-64
2022/05/13 14:24:08;;;;;;;2.55;0.40;;;;;;;24.34;28.49;100466.84;10379051;28;20060;-63
2022/05/13 14:29:13;;;;;;;3.45;0.60;;;;;;;24.35;27.66;100468.53;10378609;28;20055;-64
2022/05/13 14:34:19;;;;;;;0.88;0.22;;;;;;;24.16;28.61;100470.19;10389329;28;20088;-64
2022/05/13 14:44:50;;;;;;;2.75;0.47;;;;;;;24.08;29.08;100467.69;10385861;28;20194;-64
2022/05/13 14:49:55;;;;;;;1.45;0.30;;;;;;;24.31;28.79;100467.25;10377803;28;20229;-64
2022/05/13 14:54:59;;;;;;;2.53;0.40;;;;;;;24.34;28.56;100460.56;10377986;28;20443;-65
2022/05/13 15:00:12;;;;;;;5.03;0.80;;;;;;;23.99;28.96;100464.31;10377766;28;20057;-66
2022/05/13 15:05:26;;;;;;;3.30;0.43;;;;;;;23.83;29.21;100462.78;10379672;28;20500;-65
2022/05/13 15:10:29;;;;;;;2.00;0.43;;;;;;;23.96;29.23;100459.28;10373847;28;20055;-63
2022/05/13 15:15:30;;;;;;;;;;;;;;;24.08;28.83;100464.09;10376412;28;20435;-63
2022/05/13 15:20:32;;;;;;;2.78;0.57;;;;;;;23.78;28.76;100462.56;10376842;28;20263;-64
2022/05/13 15:25:40;;;;;;;1.83;0.80;;;;;;;23.70;29.16;100467.34;10378060;28;20051;-64
2022/05/13 15:30:42;;;;;;;1.73;0.65;;;;;;;23.36;29.61;100441.94;10377351;28;20483;-64
2022/05/13 15:35:44;;;;;;;2.08;0.73;;;;;;;23.24;29.45;100439.81;10377545;28;20049;-64
2022/05/13 15:40:46;;;;;;;2.55;0.60;;;;;;;23.07;30.12;100457.44;10379067;28;20064;-64
2022/05/13 15:45:53;;;;;;;1.63;0.38;;;;;;;23.36;29.79;100458.25;10392742;28;20056;-64
2022/05/13 15:56:25;;;;;;;1.60;0.55;;;;;;;23.16;29.82;100464.41;10387602;28;20069;-64
2022/05/13 16:01:27;;;;;;;1.50;0.30;;;;;;;23.18;29.82;100462.34;10375578;28;20720;-63
2022/05/13 16:06:28;;;;;;;1.70;0.70;;;;;;;23.18;30.02;100456.06;10374540;28;20148;-63
2022/05/13 16:11:33;;;;;;;0.80;0.28;;;;;;;23.22;29.86;100460.06;10375077;28;20041;-63
2022/05/13 16:16:40;;;;;;;3.08;0.85;;;;;;;23.30;29.30;100455.31;10373224;28;20419;-63
2022/05/13 16:21:42;;;;;;;1.90;0.40;;;;;;;23.07;30.04;100454.75;10375699;28;20057;-63
2022/05/13 16:26:44;;;;;;;1.27;0.45;;;;;;;23.27;30.05;100455.72;10374113;28;20077;-62
2022/05/13 16:31:45;;;;;;;1.08;0.55;;;;;;;22.99;30.31;100457.63;10374081;28;20112;-64
2022/05/13 16:42:07;;;;;;;1.60;0.35;;;;;;;22.52;30.24;100425.59;10390064;28;20144;-64
2022/05/13 16:47:09;;;;;;;3.10;0.85;;;;;;;22.73;30.34;100461.88;10376009;28;20056;-64
2022/05/13 16:52:12;;;;;;;1.90;0.50;;;;;;;22.73;30.61;100449.13;10376119;28;20144;-63
2022/05/13 16:57:14;;;;;;;2.03;0.70;;;;;;;22.65;30.71;100457.41;10376610;28;20462;-64
2022/05/13 17:02:15;;;;;;;1.58;0.50;;;;;;;22.53;31.02;100459.84;10375714;28;20132;-64
2022/05/13 17:07:17;;;;;;;3.38;1.67;;;;;;;22.33;31.17;100439.84;10376284;28;20735;-64
2022/05/13 17:17:39;;;;;;;0.98;0.40;;;;;;;22.54;31.18;100461.50;10376043;28;20069;-65
2022/05/13 17:22:40;;;;;;;2.13;0.65;;;;;;;22.28;31.03;100445.84;10380106;28;20132;-64
2022/05/13 17:27:49;;;;;;;2.20;0.32;;;;;;;22.47;31.34;100457.91;10385512;28;20057;-63
2022/05/13 17:32:50;;;;;;;2.05;0.70;;;;;;;22.44;31.35;100452.88;10391418;28;20065;-64
2022/05/13 17:37:56;;;;;;;1.48;0.40;;;;;;;22.45;31.45;100457.25;10407071;28;20486;-65
2022/05/13 17:42:58;;;;;;;2.08;0.60;;;;;;;22.33;31.41;100465.09;10403773;28;20125;-63
2022/05/13 17:48:00;;;;;;;1.63;0.40;;;;;;;22.03;31.85;100426.44;10385380;28;20069;-65
2022/05/13 17:53:01;;;;;;;2.58;0.50;;;;;;;21.97;32.13;100448.91;10369669;28;20185;-64
2022/05/13 17:58:03;;;;;;;1.63;0.40;;;;;;;21.94;32.13;100462.84;10414165;28;20158;-63
2022/05/13 18:03:07;;;;;;;2.67;0.70;;;;;;;21.78;32.37;100459.31;10416069;28;20041;-66
2022/05/13 18:08:11;;;;;;;2.30;0.80;;;;;;;21.84;32.95;100458.56;10413775;28;20080;-64
2022/05/13 18:13:12;;;;;;;2.83;0.80;;;;;;;21.80;32.48;100451.84;10404197;28;20132;-64
2022/05/13 18:18:32;;;;;;;3.53;1.05;;;;;;;21.73;33.26;100448.22;10402020;28;20088;-64
2022/05/13 18:23:36;;;;;;;1.63;0.70;;;;;;;21.80;33.08;100465.41;10399492;28;20068;-65
2022/05/13 18:28:39;;;;;;;2.42;0.50;;;;;;;21.76;33.96;100468.69;10415273;28;20374;-64
2022/05/13 18:33:40;;;;;;;3.85;0.95;;;;;;;21.66;34.65;100474.41;10425088;28;20057;-64
2022/05/13 18:38:42;;;;;;;2.70;0.80;;;;;;;21.59;35.06;100470.78;10414570;28;20045;-64
2022/05/13 18:49:06;;;;;;;2.58;0.50;;;;;;;21.39;35.87;100476.75;10412545;28;20045;-64
2022/05/13 18:54:11;;;;;;;4.57;0.85;;;;;;;21.21;36.37;100470.91;10404104;28;20354;-65
2022/05/13 18:59:12;;;;;;;2.60;0.85;;;;;;;21.15;36.57;100486.88;10412823;28;20061;-65
2022/05/13 19:04:14;;;;;;;4.03;1.15;;;;;;;21.06;36.74;100484.44;10411461;28;20140;-64
2022/05/13 19:09:18;;;;;;;1.63;0.80;;;;;;;20.98;37.13;100498.91;10411809;28;20131;-67
2022/05/13 19:14:21;;;;;;;2.97;1.05;;;;;;;20.84;36.85;100487.88;10406422;28;20041;-64
2022/05/13 19:19:23;;;;;;;;;;;;;;;20.82;37.50;100498.06;10400284;28;20112;-65
2022/05/13 19:24:24;;;;;;;2.00;0.90;;;;;;;20.71;36.93;100489.56;10419903;28;19932;-63
2022/05/13 19:29:25;;;;;;;2.55;1.00;;;;;;;20.58;36.88;100496.41;10406448;28;20050;-63
2022/05/13 19:34:33;;;;;;;4.38;1.23;;;;;;;20.52;37.16;100513.34;10411316;28;20046;-64
2022/05/13 19:39:35;;;;;;;4.18;1.52;;;;;;;20.39;37.83;100516.69;10413449;28;20049;-64
2022/05/13 19:44:36;;;;;;;4.78;2.00;;;;;;;20.25;38.53;100507.50;10416434;28;20049;-66
2022/05/13 19:49:37;;;;;;;4.13;1.63;;;;;;;20.23;39.10;100512.22;10418235;28;20060;-65
2022/05/13 19:54:39;;;;;;;4.75;1.50;;;;;;;20.26;39.00;100519.97;10413803;28;20053;-64
2022/05/13 19:59:40;;;;;;;3.90;1.52;;;;;;;20.12;39.09;100510.78;10416976;28;20056;-64
2022/05/13 20:10:38;;;;;;;3.92;1.52;;;;;;;20.03;39.37;100516.44;10419189;28;20049;-64
2022/05/13 20:15:30;;;;;;;4.30;1.70;;;;;;;19.93;39.86;100512.09;10376921;28;20060;-64
2022/05/13 20:25:52;;;;;;;4.80;2.15;;;;;;;19.94;40.40;100538.09;10414028;28;20045;-64
2022/05/13 20:30:54;;;;;;;5.28;2.20;;;;;;;19.81;40.47;100513.53;10412384;28;20050;-64
2022/05/13 20:35:57;;;;;;;8.95;5.32;;;;;;;19.72;40.49;100522.66;10411095;28;20045;-64
2022/05/13 20:40:59;;;;;;;5.90;1.90;;;;;;;19.72;40.60;100534.28;10409697;28;20045;-63
2022/05/13 20:46:01;;;;;;;4.80;1.65;;;;;;;19.74;41.08;100534.97;10410243;28;20045;-64
2022/05/13 20:51:02;;;;;;;3.08;1.75;;;;;;;19.68;41.11;100532.13;10413598;28;20049;-63
2022/05/13 20:56:04;;;;;;;4.90;1.83;;;;;;;19.58;41.09;100524.25;10412757;28;20045;-64
2022/05/13 21:01:05;;;;;;;3.08;2.15;;;;;;;19.55;41.33;100532.72;10409349;28;20061;-65
2022/05/13 21:06:07;;;;;;;3.50;2.25;;;;;;;19.52;41.87;100525.78;10414576;28;20030;-64
2022/05/13 21:11:09;;;;;;;6.47;3.97;;;;;;;19.50;41.55;100552.13;10418258;28;20049;-65
2022/05/13 21:16:11;;;;;;;8.05;4.35;;;;;;;19.40;41.56;100546.94;10407978;28;20049;-65
2022/05/13 21:21:14;;;;;;;5.15;3.40;;;;;;;19.35;42.09;100546.63;10397183;28;20048;-64
2022/05/13 21:26:15;;;;;;;4.35;3.33;;;;;;;19.37;42.03;100543.75;10377564;28;20080;-65
2022/05/13 21:31:17;;;;;;;5.05;3.22;;;;;;;19.23;42.10;100537.19;10373079;28;20050;-64
2022/05/13 21:41:39;;;;;;;7.88;4.45;;;;;;;19.22;43.51;100546.31;10388536;28;20069;-64
2022/05/13 21:46:40;;;;;;;6.82;3.60;;;;;;;19.15;42.67;100543.47;10393681;28;20424;-65
2022/05/13 21:57:04;;;;;;;6.00;3.33;;;;;;;18.88;43.37;100529.34;10380499;28;20586;-63
2022/05/13 22:02:06;;;;;;;5.18;3.05;;;;;;;19.03;43.08;100563.72;10403557;28;20243;-64
2022/05/13 22:07:08;;;;;;;6.75;3.72;;;;;;;18.99;43.98;100571.31;10389104;28;20177;-65
2022/05/13 22:12:10;;;;;;;7.82;4.70;;;;;;;18.87;43.55;100564.56;10384171;28;20045;-64
2022/05/13 22:17:12;;;;;;;7.55;3.58;;;;;;;18.68;44.37;100560.38;10386245;28;20057;-65
2022/05/13 22:22:13;;;;;;;5.97;2.85;;;;;;;18.65;44.12;100561.53;10385977;28;20073;-64
2022/05/13 22:27:14;;;;;;;8.68;3.63;;;;;;;18.60;44.37;100550.44;10386889;28;20128;-63
2022/05/13 22:32:16;;;;;;;6.03;3.78;;;;;;;18.62;44.40;100572.66;10386577;28;20059;-64
2022/05/13 22:37:17;;;;;;;5.88;3.38;;;;;;;18.58;44.68;100578.56;10398739;28;20136;-64
2022/05/13 22:42:19;;;;;;;8.68;3.20;;;;;;;18.48;44.77;100563.41;10380784;28;20045;-63
2022/05/13 22:47:20;;;;;;;4.55;3.20;;;;;;;18.49;45.25;100575.00;10375048;28;20428;-64
2022/05/13 22:52:22;;;;;;;4.55;3.53;;;;;;;18.42;45.65;100571.28;10377374;28;20053;-65
2022/05/13 22:57:23;;;;;;;5.55;3.20;;;;;;;18.32;45.91;100577.69;10376475;28;20046;-65
2022/05/13 23:02:25;;;;;;;4.53;2.58;;;;;;;18.21;46.14;100569.94;10377258;28;20116;-63
2022/05/13 23:12:46;;;;;;;6.03;2.65;;;;;;;18.12;46.40;100574.47;10376773;28;20582;-64
2022/05/13 23:17:47;;;;;;;4.85;2.15;;;;;;;18.17;46.14;100579.34;10376475;28;20049;-68
2022/05/13 23:22:49;;;;;;;4.22;2.40;;;;;;;18.09;46.51;100582.00;10369637;28;20060;-63
2022/05/13 23:27:51;;;;;;;3.97;2.15;;;;;;;17.97;46.36;100573.41;10375486;28;20616;-64
2022/05/13 23:32:52;;;;;;;3.78;2.35;;;;;;;18.04;46.10;100589.75;10375290;28;20049;-64
2022/05/13 23:37:54;;;;;;;6.53;2.63;;;;;;;17.98;47.35;100572.41;10373836;28;20140;-64
2022/05/13 23:42:56;;;;;;;4.88;2.25;;;;;;;17.94;46.44;100577.28;10373415;28;20564;-65
2022/05/13 23:47:58;;;;;;;4.93;2.17;;;;;;;17.94;46.81;100585.34;10372976;28;20140;-64
2022/05/13 23:58:19;;;;;;;5.07;2.50;;;;;;;17.85;47.06;100576.38;10375103;28;20037;-64
